createdAt,value
2018-12-16T00:01:15.788Z,1.20
2018-12-16T00:03:44.676Z,0.90
2018-12-16T00:06:12.976Z,1.20
2018-12-16T00:08:41.393Z,1.20
2018-12-16T00:11:09.854Z,1.30
2018-12-16T00:13:38.297Z,1.30
2018-12-16T00:16:06.991Z,1.30
2018-12-16T00:18:34.390Z,1.30
2018-12-16T00:21:02.931Z,1.30
2018-12-16T00:23:31.401Z,1.20
2018-12-16T00:25:59.809Z,1.30
2018-12-16T00:28:29.060Z,1.30
2018-12-16T00:30:56.680Z,1.30
2018-12-16T00:33:26.261Z,1.30
2018-12-16T00:35:54.997Z,1.30
2018-12-16T00:38:23.312Z,1.30
2018-12-16T00:40:51.709Z,1.30
2018-12-16T00:43:20.348Z,1.40
2018-12-16T00:45:49.053Z,1.40
2018-12-16T00:48:17.364Z,1.10
2018-12-16T00:50:45.872Z,1.40
2018-12-16T00:53:14.308Z,1.40
2018-12-16T00:55:42.994Z,1.20
2018-12-16T00:58:11.470Z,1.20
2018-12-16T01:00:40.022Z,1.40
2018-12-16T01:03:08.514Z,1.40
2018-12-16T01:05:37.029Z,1.40
2018-12-16T01:08:05.773Z,1.40
2018-12-16T01:10:34.193Z,1.70
2018-12-16T01:13:02.516Z,1.40
2018-12-16T01:15:30.932Z,1.40
2018-12-16T01:18:00.133Z,1.50
2018-12-16T01:20:27.633Z,1.50
2018-12-16T01:22:56.143Z,1.60
2018-12-16T01:25:24.593Z,1.60
2018-12-16T01:27:52.981Z,1.60
2018-12-16T01:30:21.635Z,1.60
2018-12-16T01:32:50.216Z,1.50
2018-12-16T01:35:18.591Z,1.40
2018-12-16T01:37:47.216Z,1.50
2018-12-16T01:40:15.213Z,1.50
2018-12-16T01:42:43.616Z,1.30
2018-12-16T01:45:12.249Z,1.70
2018-12-16T01:47:40.957Z,1.60
2018-12-16T01:50:09.667Z,1.50
2018-12-16T01:52:37.025Z,1.50
2018-12-16T01:55:07.376Z,1.50
2018-12-16T01:57:35.929Z,1.60
2018-12-16T02:00:05.233Z,1.60
2018-12-16T02:02:37.526Z,1.60
2018-12-16T02:05:05.102Z,1.50
2018-12-16T02:07:32.441Z,1.60
2018-12-16T02:10:00.000Z,1.60
2018-12-16T02:12:27.341Z,1.50
2018-12-16T02:14:55.915Z,1.50
2018-12-16T02:17:24.354Z,1.60
2018-12-16T02:19:53.049Z,1.60
2018-12-16T02:22:21.477Z,1.60
2018-12-16T02:24:48.809Z,1.60
2018-12-16T02:27:17.226Z,1.50
2018-12-16T02:29:45.689Z,1.60
2018-12-16T02:32:14.069Z,1.60
2018-12-16T02:34:42.473Z,1.70
2018-12-16T02:37:10.906Z,1.70
2018-12-16T02:39:39.333Z,1.70
2018-12-16T02:42:08.137Z,1.80
2018-12-16T02:44:36.715Z,1.80
2018-12-16T02:47:04.146Z,1.70
2018-12-16T02:49:32.549Z,1.80
2018-12-16T02:52:01.012Z,1.90
2018-12-16T02:54:29.353Z,1.90
2018-12-16T02:56:57.950Z,1.90
2018-12-16T02:59:26.651Z,1.70
2018-12-16T03:01:54.259Z,1.90
2018-12-16T03:04:29.780Z,1.90
2018-12-16T03:06:57.590Z,1.90
2018-12-16T03:09:25.143Z,1.90
2018-12-16T03:11:52.518Z,2.00
2018-12-16T03:14:19.793Z,2.00
2018-12-16T03:16:47.100Z,2.00
2018-12-16T03:19:14.394Z,2.00
2018-12-16T03:21:41.841Z,1.60
2018-12-16T03:24:10.345Z,2.00
2018-12-16T03:26:39.001Z,2.10
2018-12-16T03:29:06.377Z,2.10
2018-12-16T03:31:34.817Z,2.20
2018-12-16T03:34:03.272Z,2.10
2018-12-16T03:36:31.617Z,2.10
2018-12-16T03:39:00.466Z,2.00
2018-12-16T03:41:28.874Z,2.00
2018-12-16T03:43:57.495Z,2.10
2018-12-16T03:46:26.151Z,2.10
2018-12-16T03:48:53.521Z,2.10
2018-12-16T03:51:21.910Z,2.20
2018-12-16T03:53:50.219Z,2.20
2018-12-16T03:56:18.619Z,2.20
2018-12-16T03:58:58.711Z,2.30
2018-12-16T04:01:27.237Z,2.20
2018-12-16T04:03:55.575Z,2.20
2018-12-16T04:06:23.991Z,2.30
2018-12-16T04:08:53.107Z,2.30
2018-12-16T04:11:20.412Z,2.30
2018-12-16T04:13:48.841Z,2.30
2018-12-16T04:16:17.545Z,2.20
2018-12-16T04:18:45.952Z,2.20
2018-12-16T04:21:14.264Z,2.20
2018-12-16T04:23:42.754Z,2.20
2018-12-16T04:26:11.213Z,2.30
2018-12-16T04:28:39.373Z,2.30
2018-12-16T04:31:07.952Z,2.20
2018-12-16T04:33:36.466Z,2.20
2018-12-16T04:36:04.922Z,2.20
2018-12-16T04:38:33.241Z,2.20
2018-12-16T04:41:01.804Z,2.10
2018-12-16T04:43:30.262Z,2.00
2018-12-16T04:45:58.801Z,2.00
2018-12-16T04:48:26.218Z,1.90
2018-12-16T04:50:54.709Z,1.90
2018-12-16T04:53:23.129Z,1.60
2018-12-16T04:55:51.465Z,1.80
2018-12-16T04:58:19.901Z,1.70
2018-12-16T05:00:48.273Z,1.90
2018-12-16T05:03:16.747Z,1.90
2018-12-16T05:05:45.162Z,1.80
2018-12-16T05:08:13.766Z,1.90
2018-12-16T05:10:42.273Z,1.90
2018-12-16T05:13:10.646Z,1.90
2018-12-16T05:15:39.190Z,1.90
2018-12-16T05:18:06.741Z,1.40
2018-12-16T05:20:35.257Z,1.90
2018-12-16T05:23:03.709Z,2.00
2018-12-16T05:25:32.550Z,1.90
2018-12-16T05:28:00.959Z,1.90
2018-12-16T05:30:29.424Z,1.90
2018-12-16T05:32:57.873Z,1.80
2018-12-16T05:35:26.349Z,1.80
2018-12-16T05:37:54.682Z,1.50
2018-12-16T05:40:23.178Z,1.80
2018-12-16T05:42:51.740Z,1.70
2018-12-16T05:45:20.242Z,1.70
2018-12-16T05:47:48.675Z,1.80
2018-12-16T05:50:17.150Z,1.80
2018-12-16T05:52:45.609Z,1.80
2018-12-16T05:55:14.109Z,1.60
2018-12-16T05:57:42.508Z,1.00
2018-12-16T06:00:11.356Z,1.70
2018-12-16T06:02:39.821Z,1.70
2018-12-16T06:05:08.430Z,1.80
2018-12-16T06:07:36.949Z,1.70
2018-12-16T06:10:05.996Z,1.70
2018-12-16T06:12:34.525Z,1.70
2018-12-16T06:15:03.285Z,1.70
2018-12-16T06:17:31.242Z,1.70
2018-12-16T06:19:58.670Z,1.80
2018-12-16T06:22:27.075Z,1.80
2018-12-16T06:24:55.637Z,1.80
2018-12-16T06:27:24.452Z,1.80
2018-12-16T06:29:53.123Z,1.90
2018-12-16T06:32:21.571Z,1.90
2018-12-16T06:34:49.969Z,2.00
2018-12-16T06:37:18.528Z,2.00
2018-12-16T06:39:47.049Z,2.00
2018-12-16T06:42:14.357Z,2.10
2018-12-16T06:44:42.761Z,2.00
2018-12-16T06:47:11.202Z,2.00
2018-12-16T06:49:39.654Z,2.00
2018-12-16T06:52:08.589Z,2.00
2018-12-16T06:54:37.059Z,2.00
2018-12-16T06:57:04.369Z,1.90
2018-12-16T06:59:32.786Z,2.00
2018-12-16T07:02:01.357Z,2.00
2018-12-16T07:04:29.777Z,2.00
2018-12-16T07:06:58.105Z,2.00
2018-12-16T07:09:26.531Z,2.00
2018-12-16T07:11:54.938Z,2.10
2018-12-16T07:14:23.562Z,1.70
2018-12-16T07:16:51.427Z,2.00
2018-12-16T07:19:19.963Z,2.00
2018-12-16T07:21:48.413Z,2.10
2018-12-16T07:24:16.942Z,1.80
2018-12-16T07:26:45.676Z,2.10
2018-12-16T07:29:13.932Z,2.10
2018-12-16T07:31:41.339Z,2.10
2018-12-16T07:34:09.654Z,2.00
2018-12-16T07:36:38.321Z,2.10
2018-12-16T07:39:07.178Z,2.10
2018-12-16T07:41:36.965Z,2.10
2018-12-16T07:44:04.429Z,2.10
2018-12-16T07:46:32.932Z,2.10
2018-12-16T07:49:01.614Z,2.10
2018-12-16T07:51:30.077Z,2.10
2018-12-16T07:53:57.448Z,2.00
2018-12-16T07:56:25.989Z,2.00
2018-12-16T07:58:54.618Z,2.00
2018-12-16T08:01:23.381Z,2.10
2018-12-16T08:03:51.826Z,1.80
2018-12-16T08:06:19.134Z,2.10
2018-12-16T08:08:47.429Z,2.10
2018-12-16T08:11:15.836Z,2.10
2018-12-16T08:13:44.256Z,1.90
2018-12-16T08:16:13.161Z,2.10
2018-12-16T08:18:41.793Z,2.10
2018-12-16T08:21:10.460Z,2.10
2018-12-16T08:23:38.913Z,2.50
2018-12-16T08:26:07.617Z,2.20
2018-12-16T08:28:35.040Z,2.20
2018-12-16T08:31:03.537Z,2.10
2018-12-16T08:33:32.009Z,2.20
2018-12-16T08:36:00.793Z,2.40
2018-12-16T08:38:29.238Z,2.30
2018-12-16T08:41:00.477Z,2.20
2018-12-16T08:43:27.832Z,2.30
2018-12-16T08:45:55.278Z,2.30
2018-12-16T08:48:22.597Z,2.30
2018-12-16T08:50:51.031Z,2.40
2018-12-16T08:53:19.806Z,2.40
2018-12-16T08:55:47.147Z,2.40
2018-12-16T08:58:15.597Z,2.40
2018-12-16T09:00:44.067Z,2.70
2018-12-16T09:03:12.509Z,2.30
2018-12-16T09:05:41.322Z,2.40
2018-12-16T09:08:09.754Z,2.40
2018-12-16T09:10:38.443Z,2.40
2018-12-16T09:13:06.982Z,2.40
2018-12-16T09:15:34.345Z,2.40
2018-12-16T09:18:03.671Z,2.40
2018-12-16T09:20:32.217Z,2.50
2018-12-16T09:22:59.675Z,2.50
2018-12-16T09:25:28.126Z,2.40
2018-12-16T09:27:57.073Z,2.40
2018-12-16T09:30:25.642Z,2.40
2018-12-16T09:32:53.023Z,1.80
2018-12-16T09:35:21.558Z,2.50
2018-12-16T09:37:49.995Z,2.50
2018-12-16T09:40:18.426Z,2.60
2018-12-16T09:42:46.870Z,2.70
2018-12-16T09:45:15.615Z,2.70
2018-12-16T09:47:43.366Z,2.70
2018-12-16T09:50:11.933Z,2.80
2018-12-16T09:52:40.399Z,2.80
2018-12-16T09:55:09.242Z,2.80
2018-12-16T09:57:37.664Z,2.80
2018-12-16T10:00:08.072Z,3.00
2018-12-16T10:02:36.397Z,2.80
2018-12-16T10:05:05.380Z,2.80
2018-12-16T10:07:33.873Z,2.90
2018-12-16T10:10:04.857Z,3.40
2018-12-16T10:12:32.277Z,3.00
2018-12-16T10:14:59.594Z,3.10
2018-12-16T10:17:26.897Z,3.10
2018-12-16T10:19:55.260Z,3.10
2018-12-16T10:22:23.691Z,3.20
2018-12-16T10:24:52.325Z,3.20
2018-12-16T10:27:20.802Z,3.20
2018-12-16T10:29:49.341Z,3.20
2018-12-16T10:32:17.676Z,3.30
2018-12-16T10:34:46.107Z,3.30
2018-12-16T10:37:14.520Z,3.80
2018-12-16T10:39:43.312Z,3.30
2018-12-16T10:42:11.720Z,3.30
2018-12-16T10:44:40.289Z,3.30
2018-12-16T10:47:08.739Z,3.40
2018-12-16T10:49:37.162Z,3.40
2018-12-16T10:52:04.465Z,3.40
2018-12-16T10:54:32.870Z,3.40
2018-12-16T10:57:01.273Z,3.40
2018-12-16T10:59:29.781Z,3.30
2018-12-16T11:01:58.213Z,3.30
2018-12-16T11:04:26.895Z,3.30
2018-12-16T11:06:55.448Z,3.30
2018-12-16T11:09:23.953Z,3.30
2018-12-16T11:11:52.357Z,3.30
2018-12-16T11:14:20.757Z,3.30
2018-12-16T11:16:49.265Z,3.30
2018-12-16T11:19:17.645Z,3.20
2018-12-16T11:21:46.198Z,3.20
2018-12-16T11:24:14.758Z,3.20
2018-12-16T11:26:42.219Z,3.20
2018-12-16T11:29:15.929Z,3.20
2018-12-16T11:31:44.466Z,3.20
2018-12-16T11:34:12.913Z,3.30
2018-12-16T11:36:41.498Z,2.90
2018-12-16T11:39:10.130Z,3.30
2018-12-16T11:41:38.731Z,3.30
2018-12-16T11:44:07.351Z,3.40
2018-12-16T11:46:35.978Z,3.40
2018-12-16T11:49:04.480Z,3.40
2018-12-16T11:51:33.134Z,3.40
2018-12-16T11:54:01.550Z,3.40
2018-12-16T11:56:29.895Z,3.50
2018-12-16T11:58:58.552Z,3.50
2018-12-16T12:01:25.906Z,3.50
2018-12-16T12:03:54.398Z,3.50
2018-12-16T12:06:22.904Z,3.60
2018-12-16T12:08:51.452Z,3.60
2018-12-16T12:11:19.828Z,3.60
2018-12-16T12:13:48.213Z,3.70
2018-12-16T12:16:16.613Z,3.70
2018-12-16T12:18:45.062Z,3.70
2018-12-16T12:21:13.485Z,3.70
2018-12-16T12:23:41.957Z,3.80
2018-12-16T12:26:09.343Z,3.80
2018-12-16T12:28:38.171Z,3.80
2018-12-16T12:31:06.831Z,3.90
2018-12-16T12:33:35.441Z,3.90
2018-12-16T12:36:03.864Z,3.80
2018-12-16T12:38:32.277Z,3.80
2018-12-16T12:41:00.778Z,3.80
2018-12-16T12:43:29.233Z,3.80
2018-12-16T12:45:57.522Z,3.80
2018-12-16T12:48:25.906Z,3.90
2018-12-16T12:50:54.363Z,3.90
2018-12-16T12:53:22.672Z,3.90
2018-12-16T12:55:55.731Z,3.90
2018-12-16T12:58:23.131Z,3.80
2018-12-16T13:00:50.449Z,3.80
2018-12-16T13:03:17.852Z,4.30
2018-12-16T13:05:46.300Z,3.90
2018-12-16T13:08:14.812Z,3.90
2018-12-16T13:10:43.349Z,4.00
2018-12-16T13:13:11.818Z,4.00
2018-12-16T13:15:40.227Z,4.10
2018-12-16T13:18:08.721Z,4.10
2018-12-16T13:20:36.004Z,4.20
2018-12-16T13:23:04.472Z,4.00
2018-12-16T13:25:44.574Z,4.00
2018-12-16T13:28:13.015Z,4.20
2018-12-16T13:30:41.678Z,4.10
2018-12-16T13:33:10.062Z,4.10
2018-12-16T13:35:39.490Z,4.10
2018-12-16T13:38:08.087Z,4.10
2018-12-16T13:40:36.484Z,4.10
2018-12-16T13:43:05.893Z,4.40
2018-12-16T13:45:33.294Z,4.10
2018-12-16T13:48:01.880Z,4.10
2018-12-16T13:50:30.269Z,4.10
2018-12-16T13:52:58.605Z,4.10
2018-12-16T13:55:27.161Z,4.20
2018-12-16T13:57:56.073Z,4.20
2018-12-16T14:00:24.497Z,4.50
2018-12-16T14:02:52.035Z,4.10
2018-12-16T14:05:21.002Z,4.20
2018-12-16T14:07:50.029Z,4.10
2018-12-16T14:10:17.518Z,4.20
2018-12-16T14:12:45.914Z,4.20
2018-12-16T14:17:46.797Z,4.20
2018-12-16T14:20:14.068Z,3.90
2018-12-16T14:22:41.582Z,4.30
2018-12-16T14:25:09.085Z,4.30
2018-12-16T14:27:37.547Z,4.20
2018-12-16T14:30:08.283Z,4.20
2018-12-16T14:32:36.841Z,4.30
2018-12-16T14:35:06.040Z,4.30
2018-12-16T14:37:34.614Z,4.30
2018-12-16T14:40:04.217Z,4.30
2018-12-16T14:42:32.647Z,4.70
2018-12-16T14:45:00.951Z,4.00
2018-12-16T14:47:29.297Z,4.30
2018-12-16T14:49:57.697Z,4.30
2018-12-16T14:52:26.216Z,4.30
2018-12-16T14:54:54.605Z,4.30
2018-12-16T14:57:23.002Z,4.20
2018-12-16T14:59:52.101Z,4.30
2018-12-16T15:02:20.509Z,4.30
2018-12-16T15:04:48.848Z,4.20
2018-12-16T15:07:17.196Z,4.20
2018-12-16T15:09:45.685Z,4.30
2018-12-16T15:12:14.059Z,4.60
2018-12-16T15:14:42.643Z,4.30
2018-12-16T15:17:11.305Z,4.10
2018-12-16T15:19:39.731Z,4.30
2018-12-16T15:22:08.279Z,4.10
2018-12-16T15:24:36.714Z,4.20
2018-12-16T15:27:05.113Z,4.30
2018-12-16T15:29:33.569Z,4.30
2018-12-16T15:32:01.949Z,4.30
2018-12-16T15:34:30.409Z,4.00
2018-12-16T15:36:58.842Z,4.40
2018-12-16T15:39:27.644Z,4.40
2018-12-16T15:41:56.157Z,4.30
2018-12-16T15:44:24.535Z,4.50
2018-12-16T15:46:53.052Z,4.20
2018-12-16T15:49:21.444Z,4.40
2018-12-16T15:51:49.914Z,4.50
2018-12-16T15:54:19.433Z,4.30
2018-12-16T15:56:46.897Z,4.40
2018-12-16T15:59:14.197Z,4.50
2018-12-16T16:01:42.697Z,4.50
2018-12-16T16:04:11.319Z,4.50
2018-12-16T16:06:39.970Z,4.50
2018-12-16T16:09:08.518Z,4.40
2018-12-16T16:11:36.935Z,4.40
2018-12-16T16:14:05.466Z,4.40
2018-12-16T16:16:34.088Z,4.40
2018-12-16T16:19:02.660Z,4.40
2018-12-16T16:21:31.067Z,4.40
2018-12-16T16:23:59.470Z,4.40
2018-12-16T16:26:28.156Z,4.40
2018-12-16T16:28:55.495Z,4.40
2018-12-16T16:31:24.058Z,4.80
2018-12-16T16:33:52.615Z,4.80
2018-12-16T16:36:21.050Z,4.40
2018-12-16T16:38:49.494Z,4.40
2018-12-16T16:41:17.813Z,4.50
2018-12-16T16:43:46.187Z,4.50
2018-12-16T16:46:14.944Z,4.30
2018-12-16T16:48:43.375Z,4.50
2018-12-16T16:51:11.868Z,4.80
2018-12-16T16:53:40.255Z,4.40
2018-12-16T16:56:08.673Z,4.50
2018-12-16T16:58:37.206Z,4.80
2018-12-16T17:01:06.033Z,4.50
2018-12-16T17:03:34.651Z,4.40
2018-12-16T17:06:03.208Z,4.30
2018-12-16T17:08:31.552Z,4.30
2018-12-16T17:11:00.517Z,4.40
2018-12-16T17:13:29.731Z,4.40
2018-12-16T17:15:56.997Z,4.40
2018-12-16T17:18:25.462Z,4.50
2018-12-16T17:20:54.001Z,4.50
2018-12-16T17:23:22.404Z,4.50
2018-12-16T17:25:51.007Z,4.50
2018-12-16T17:28:20.298Z,4.60
2018-12-16T17:30:47.606Z,4.60
2018-12-16T17:33:15.597Z,4.50
2018-12-16T17:35:44.125Z,4.60
2018-12-16T17:38:12.886Z,4.60
2018-12-16T17:40:41.413Z,4.90
2018-12-16T17:43:08.780Z,4.70
2018-12-16T17:45:37.205Z,4.70
2018-12-16T17:48:05.725Z,4.80
2018-12-16T17:50:34.101Z,4.70
2018-12-16T17:53:02.552Z,4.80
2018-12-16T17:55:30.968Z,4.70
2018-12-16T17:57:59.514Z,4.70
2018-12-16T18:00:27.941Z,4.80
2018-12-16T18:02:56.709Z,4.80
2018-12-16T18:05:25.120Z,4.80
2018-12-16T18:07:53.508Z,5.20
2018-12-16T18:10:22.161Z,4.80
2018-12-16T18:12:49.450Z,4.80
2018-12-16T18:15:17.997Z,4.80
2018-12-16T18:17:46.351Z,4.90
2018-12-16T18:20:14.986Z,4.90
2018-12-16T18:22:43.506Z,4.90
2018-12-16T18:25:12.004Z,5.10
2018-12-16T18:27:40.381Z,5.30
2018-12-16T18:30:11.224Z,4.90
2018-12-16T18:32:39.810Z,4.90
2018-12-16T18:35:08.447Z,4.90
2018-12-16T18:37:35.894Z,5.00
2018-12-16T18:40:04.761Z,4.90
2018-12-16T18:42:39.011Z,4.60
2018-12-16T18:45:06.659Z,4.90
2018-12-16T18:47:34.092Z,4.90
2018-12-16T18:50:01.477Z,4.80
2018-12-16T18:52:28.769Z,4.50
2018-12-16T18:54:56.049Z,4.90
2018-12-16T18:57:23.590Z,4.90
2018-12-16T18:59:52.193Z,5.00
2018-12-16T19:02:20.573Z,5.30
2018-12-16T19:04:49.084Z,5.00
2018-12-16T19:07:22.135Z,5.00
2018-12-16T19:09:49.396Z,5.00
2018-12-16T19:12:16.652Z,5.00
2018-12-16T19:14:44.506Z,5.00
2018-12-16T19:17:11.992Z,5.00
2018-12-16T19:19:39.341Z,5.00
2018-12-16T19:22:07.990Z,5.00
2018-12-16T19:24:36.562Z,4.90
2018-12-16T19:27:05.385Z,4.90
2018-12-16T19:29:33.793Z,4.90
2018-12-16T19:32:02.258Z,4.90
2018-12-16T19:34:29.548Z,4.90
2018-12-16T19:36:57.904Z,4.80
2018-12-16T19:39:26.364Z,4.80
2018-12-16T19:41:55.087Z,4.80
2018-12-16T19:44:23.666Z,4.90
2018-12-16T19:46:52.098Z,4.90
2018-12-16T19:49:20.866Z,4.90
2018-12-16T19:51:49.196Z,4.90
2018-12-16T19:54:17.914Z,5.00
2018-12-16T19:56:45.426Z,5.00
2018-12-16T19:59:13.847Z,5.00
2018-12-16T20:01:42.326Z,5.00
2018-12-16T20:04:18.985Z,5.10
2018-12-16T20:06:47.647Z,5.10
2018-12-16T20:09:16.164Z,5.10
2018-12-16T20:11:44.722Z,5.10
2018-12-16T20:14:13.238Z,5.60
2018-12-16T20:16:41.669Z,5.20
2018-12-16T20:19:10.129Z,5.20
2018-12-16T20:21:38.791Z,5.20
2018-12-16T20:24:07.433Z,5.20
2018-12-16T20:26:35.830Z,5.20
2018-12-16T20:29:04.349Z,5.20
2018-12-16T20:31:32.802Z,5.20
2018-12-16T20:34:00.286Z,5.10
2018-12-16T20:36:29.242Z,5.20
2018-12-16T20:38:57.785Z,5.20
2018-12-16T20:41:26.288Z,5.10
2018-12-16T20:43:54.824Z,5.30
2018-12-16T20:46:23.385Z,5.10
2018-12-16T20:48:51.735Z,5.20
2018-12-16T20:51:20.820Z,5.50
2018-12-16T20:53:49.220Z,5.30
2018-12-16T20:56:17.645Z,5.20
2018-12-16T20:58:46.168Z,5.20
2018-12-16T21:01:14.674Z,5.30
2018-12-16T21:03:43.225Z,5.40
2018-12-16T21:06:11.656Z,5.40
2018-12-16T21:08:39.981Z,5.50
2018-12-16T21:11:14.157Z,5.50
2018-12-16T21:13:48.473Z,5.20
2018-12-16T21:17:23.160Z,5.50
2018-12-16T21:19:50.793Z,5.80
2018-12-16T21:22:18.143Z,5.50
2018-12-16T21:24:45.465Z,5.50
2018-12-16T21:27:13.455Z,5.50
2018-12-16T21:29:40.813Z,5.70
2018-12-16T21:32:08.331Z,5.60
2018-12-16T21:34:36.722Z,5.70
2018-12-16T21:37:04.040Z,5.60
2018-12-16T21:39:31.531Z,5.60
2018-12-16T21:41:58.911Z,5.60
2018-12-16T21:44:26.267Z,5.60
2018-12-16T21:46:53.624Z,5.70
2018-12-16T21:49:21.298Z,5.90
2018-12-16T21:51:49.246Z,5.60
2018-12-16T21:54:16.665Z,5.60
2018-12-16T21:56:44.071Z,5.70
2018-12-16T21:59:11.431Z,5.70
2018-12-16T22:01:38.875Z,5.70
2018-12-16T22:04:06.204Z,5.70
2018-12-16T22:06:33.986Z,5.70
2018-12-16T22:09:01.277Z,5.70
2018-12-16T22:11:28.608Z,5.70
2018-12-16T22:13:56.066Z,5.70
2018-12-16T22:16:23.353Z,5.70
2018-12-16T22:18:50.820Z,5.70
2018-12-16T22:21:18.141Z,5.70
2018-12-16T22:23:45.486Z,5.70
2018-12-16T22:26:13.646Z,5.70
2018-12-16T22:28:41.063Z,5.80
2018-12-16T22:31:08.623Z,5.80
2018-12-16T22:33:36.373Z,5.70
2018-12-16T22:36:03.803Z,5.70
2018-12-16T22:38:31.152Z,5.80
2018-12-16T22:40:58.777Z,6.10
2018-12-16T22:43:26.080Z,5.80
2018-12-16T22:45:53.366Z,5.80
2018-12-16T22:48:20.713Z,6.10
2018-12-16T22:50:48.132Z,5.70
2018-12-16T22:53:15.521Z,5.70
2018-12-16T22:55:43.041Z,5.70
2018-12-16T22:58:10.458Z,5.70
2018-12-16T23:00:42.842Z,5.80
2018-12-16T23:03:10.230Z,5.80
2018-12-16T23:05:37.595Z,5.80
2018-12-16T23:08:04.937Z,5.70
2018-12-16T23:10:32.274Z,5.70
2018-12-16T23:12:59.609Z,5.70
2018-12-16T23:15:26.936Z,5.70
2018-12-16T23:17:54.290Z,5.60
2018-12-16T23:20:23.646Z,5.50
2018-12-16T23:22:51.026Z,5.50
2018-12-16T23:25:18.626Z,5.40
2018-12-16T23:27:45.937Z,5.80
2018-12-16T23:30:13.374Z,5.30
2018-12-16T23:32:40.921Z,5.30
2018-12-16T23:35:08.309Z,5.30
2018-12-16T23:37:35.693Z,5.70
2018-12-16T23:40:04.449Z,5.30
2018-12-16T23:42:32.865Z,5.20
2018-12-16T23:45:01.298Z,5.20
2018-12-16T23:47:29.620Z,4.70
2018-12-16T23:49:58.165Z,5.60
2018-12-16T23:52:26.680Z,5.20
2018-12-16T23:54:55.149Z,5.70
2018-12-16T23:57:25.661Z,5.30
2018-12-16T23:59:53.348Z,5.20
